Time;durP1;ratioP1;P1;durP2;ratioP2;P2;SDS_P1;SDS_P2;PMS_P1;PMS_P2;Temp;Humidity;BMP_temperature;BMP_pressure;BME280_temperature;BME280_humidity;BME280_pressure;Samples;Min_cycle;Max_cycle;Signal;HPM_P1;HPM_P2
2022/03/04 00:00:31;;;;;;;47.63;23.60;;;1.00;56.50;;;-0.11;41.79;94884.47;5043947;28;20655;-85
2022/03/04 00:02:58;;;;;;;45.72;24.77;;;1.10;56.10;;;-0.11;42.19;94895.59;5055718;28;20615;-85
2022/03/04 00:05:26;;;;;;;44.38;24.90;;;1.10;56.40;;;-0.10;42.33;94886.09;5056205;28;20196;-84
2022/03/04 00:07:53;;;;;;;47.90;24.38;;;1.10;56.60;;;-0.10;42.46;94889.47;5072777;28;20191;-84
2022/03/04 00:10:20;;;;;;;42.17;23.80;;;1.00;56.50;;;-0.09;42.07;94890.31;5056320;28;20198;-84
2022/03/04 00:12:47;;;;;;;45.85;23.83;;;1.10;56.40;;;-0.10;42.35;94886.91;5054818;28;20211;-84
2022/03/04 00:15:14;;;;;;;48.15;24.05;;;1.00;56.20;;;-0.13;42.12;94881.22;5072544;28;20210;-84
2022/03/04 00:17:44;;;;;;;43.80;23.52;;;1.00;56.10;;;-0.11;42.16;94884.47;5056654;28;20219;-85
2022/03/04 00:20:12;;;;;;;45.70;22.98;;;1.10;56.10;;;-0.19;42.18;94875.59;5071935;28;20215;-85
2022/03/04 00:22:39;;;;;;;44.03;22.10;;;1.00;56.10;;;-0.17;42.42;94888.38;5042681;28;20724;-84
2022/03/04 00:25:06;;;;;;;43.75;23.75;;;1.10;56.50;;;-0.20;42.14;94888.63;5056088;28;20268;-84
2022/03/04 00:27:33;;;;;;;49.53;24.77;;;1.10;56.50;;;-0.25;42.45;94886.41;5056252;28;20203;-84
2022/03/04 00:30:01;;;;;;;43.40;24.02;;;1.00;56.40;;;-0.23;42.52;94891.44;5036430;28;20212;-84
2022/03/04 00:32:28;;;;;;;50.65;24.65;;;1.00;56.40;;;-0.33;42.61;94881.06;5056150;28;20256;-84
2022/03/04 00:34:55;;;;;;;45.20;23.83;;;1.00;56.50;;;-0.24;42.41;94892.41;5055518;28;20211;-84
2022/03/04 00:37:23;;;;;;;43.42;23.65;;;1.00;56.40;;;-0.27;42.55;94882.31;5055961;28;20211;-84
2022/03/04 00:39:50;;;;;;;41.53;22.38;;;1.00;56.40;;;-0.33;42.25;94879.31;5038472;28;20711;-84
2022/03/04 00:42:17;;;;;;;42.70;22.20;;;1.00;56.40;;;-0.29;42.35;94892.78;5055396;28;20195;-85
2022/03/04 00:44:45;;;;;;;40.33;22.55;;;0.90;56.30;;;-0.32;41.99;94893.00;5068976;28;20307;-84
2022/03/04 00:47:12;;;;;;;41.00;22.52;;;1.00;56.70;;;-0.38;41.48;94888.34;5068396;28;20232;-85
2022/03/04 00:49:39;;;;;;;42.63;21.65;;;0.90;56.00;;;-0.39;41.91;94894.44;5055445;28;20211;-84
2022/03/04 00:52:06;;;;;;;41.03;21.42;;;0.90;56.00;;;-0.41;41.78;94892.00;5071261;28;20274;-84
2022/03/04 00:54:35;;;;;;;42.08;21.00;;;0.90;56.10;;;-0.43;41.84;94893.06;5054050;28;20689;-85
2022/03/04 00:57:02;;;;;;;39.33;22.17;;;0.90;56.00;;;-0.46;42.04;94878.69;5055284;28;20266;-84
2022/03/04 00:59:29;;;;;;;40.63;22.27;;;0.80;56.00;;;-0.46;42.21;94883.84;5034936;28;20211;-84
2022/03/04 01:01:56;;;;;;;42.42;21.95;;;0.90;56.10;;;-0.48;41.99;94877.97;5035873;28;20195;-85
2022/03/04 01:04:25;;;;;;;42.17;21.52;;;0.80;56.00;;;-0.51;42.29;94875.66;5053315;28;20214;-84
2022/03/04 01:06:52;;;;;;;39.55;20.90;;;0.80;56.10;;;-0.50;42.12;94872.13;5055031;28;20666;-85
2022/03/04 01:09:19;;;;;;;43.00;22.50;;;0.80;56.10;;;-0.51;42.01;94868.75;5034619;28;20764;-84
2022/03/04 01:11:46;;;;;;;40.00;21.55;;;0.80;56.20;;;-0.67;42.10;94851.16;5054283;28;20287;-84
2022/03/04 01:14:13;;;;;;;46.03;23.83;;;0.80;56.10;;;-0.55;42.24;94864.78;5049311;28;20223;-84
2022/03/04 01:16:42;;;;;;;45.88;22.92;;;0.70;56.20;;;-0.54;42.33;94853.56;5037598;28;20261;-84
2022/03/04 01:19:09;;;;;;;40.45;22.58;;;0.80;56.30;;;-0.55;42.08;94846.75;5054860;28;20223;-85
2022/03/04 01:21:38;;;;;;;42.00;23.35;;;0.70;56.30;;;-0.49;41.93;94859.16;5072448;28;20253;-85
2022/03/04 01:24:06;;;;;;;44.47;23.95;;;0.80;56.30;;;-0.50;42.30;94854.09;5055032;28;20695;-85
2022/03/04 01:26:33;;;;;;;44.03;22.38;;;0.70;56.30;;;-0.46;42.05;94842.63;5071395;28;20577;-85
2022/03/04 01:29:00;;;;;;;43.13;23.52;;;0.70;57.50;;;-0.45;42.01;94844.25;5054902;28;20596;-84
2022/03/04 01:31:27;;;;;;;44.88;23.00;;;0.80;56.50;;;-0.45;41.95;94836.53;5070926;28;20234;-84
2022/03/04 01:33:56;;;;;;;48.38;24.88;;;0.80;56.50;;;-0.43;42.29;94832.03;5051721;28;20212;-84
2022/03/04 01:36:24;;;;;;;50.35;24.88;;;0.80;56.60;;;-0.40;42.48;94833.56;5047412;28;20192;-85
2022/03/04 01:38:51;;;;;;;46.75;23.42;;;0.70;56.70;;;-0.43;42.67;94838.97;5034761;28;20226;-84
2022/03/04 01:41:18;;;;;;;48.50;24.73;;;0.80;57.00;;;-0.36;42.41;94835.75;5029330;28;20314;-84
2022/03/04 01:43:45;;;;;;;44.63;23.65;;;0.80;56.70;;;-0.31;41.69;94835.38;5054485;28;20636;-84
2022/03/04 01:46:18;;;;;;;43.58;22.65;;;0.80;56.50;;;-0.33;41.34;94826.94;5053870;28;20203;-84
2022/03/04 01:48:47;;;;;;;40.15;20.88;;;0.80;56.40;;;-0.33;41.44;94829.53;5054536;28;20615;-84
2022/03/04 01:51:14;;;;;;;43.05;21.70;;;0.80;56.00;;;-0.36;41.05;94829.78;5055193;28;20282;-85
2022/03/04 01:53:42;;;;;;;38.55;20.08;;;0.80;55.90;;;-0.40;41.22;94834.38;5054741;28;20246;-85
2022/03/04 01:56:09;;;;;;;42.10;22.42;;;0.80;55.90;;;-0.45;41.20;94826.22;5054603;28;20203;-84
2022/03/04 01:58:37;;;;;;;43.85;21.42;;;0.90;55.90;;;-0.40;41.24;94838.72;5054860;28;20247;-84
2022/03/04 02:01:05;;;;;;;41.28;22.02;;;0.80;55.90;;;-0.42;41.18;94831.09;5071701;28;20271;-85
2022/03/04 02:03:33;;;;;;;45.25;21.75;;;0.80;55.90;;;-0.43;41.06;94833.81;5054730;28;20215;-86
2022/03/04 02:06:00;;;;;;;42.47;23.48;;;0.80;55.80;;;-0.49;41.22;94827.38;5054601;28;20665;-84
2022/03/04 02:08:27;;;;;;;44.83;22.35;;;0.80;56.00;;;-0.46;41.12;94826.31;5054714;28;20233;-85
2022/03/04 02:10:55;;;;;;;42.45;22.05;;;0.80;56.00;;;-0.54;40.96;94816.66;5042210;28;20200;-85
2022/03/04 02:13:22;;;;;;;39.72;21.05;;;0.70;55.90;;;-0.47;41.02;94824.72;5073710;28;20251;-85
2022/03/04 02:15:49;;;;;;;45.55;23.25;;;0.70;55.90;;;-0.52;40.89;94813.00;5041639;28;20726;-85
2022/03/04 02:18:18;;;;;;;44.85;21.83;;;0.70;56.00;;;-0.51;41.16;94806.91;5041875;28;20314;-85
2022/03/04 02:20:50;;;;;;;40.42;21.67;;;0.80;56.00;;;-0.50;41.30;94812.88;5074574;28;20192;-84
2022/03/04 02:23:18;;;;;;;45.08;23.30;;;0.70;56.10;;;-0.52;41.50;94819.94;5042288;28;20215;-85
2022/03/04 02:25:49;;;;;;;37.40;21.52;;;0.70;56.00;;;-0.56;41.47;94824.50;5050136;28;20194;-84
2022/03/04 02:28:19;;;;;;;42.75;23.13;;;0.70;56.20;;;-0.56;41.62;94828.84;5054520;28;20215;-85
2022/03/04 02:30:46;;;;;;;42.40;22.17;;;0.70;56.30;;;-0.56;41.48;94828.84;5058094;28;20255;-86
2022/03/04 02:33:13;;;;;;;46.05;23.02;;;0.70;56.20;;;-0.59;41.32;94823.94;5042467;28;20219;-86
2022/03/04 02:35:42;;;;;;;44.38;22.25;;;0.70;56.20;;;-0.59;41.70;94827.34;5041283;28;20195;-84
2022/03/04 02:38:09;;;;;;;48.03;23.77;;;0.70;56.40;;;-0.63;41.49;94825.13;5067975;28;20685;-85
2022/03/04 02:40:36;;;;;;;44.28;24.13;;;0.70;56.40;;;-0.62;41.89;94824.19;5054638;28;20200;-85
2022/03/04 02:43:05;;;;;;;46.30;23.48;;;0.70;56.60;;;-0.62;41.88;94824.19;5037978;28;20583;-85
2022/03/04 02:45:33;;;;;;;45.30;23.13;;;0.60;56.50;;;-0.61;41.95;94829.22;5040262;28;20294;-86
2022/03/04 02:48:00;;;;;;;49.03;24.35;;;0.60;57.80;;;-0.62;41.93;94826.75;5058157;28;20207;-85
2022/03/04 02:50:27;;;;;;;44.45;24.08;;;0.60;56.80;;;-0.63;42.10;94827.69;5037928;28;20196;-85
2022/03/04 02:52:54;;;;;;;45.58;23.27;;;0.60;57.00;;;-0.65;41.90;94818.38;5021964;28;20203;-84
2022/03/04 02:55:22;;;;;;;50.00;25.20;;;0.60;57.00;;;-0.62;42.27;94822.44;5042867;28;20652;-85
2022/03/04 02:57:49;;;;;;;48.63;25.10;;;0.60;57.30;;;-0.64;42.07;94816.59;5058379;28;20221;-85
2022/03/04 03:00:17;;;;;;;52.85;24.65;;;0.60;57.60;;;-0.60;42.36;94817.16;5040494;28;20198;-84
2022/03/04 03:02:45;;;;;;;48.13;24.92;;;0.60;57.70;;;-0.57;42.57;94827.22;5057804;28;20554;-84
2022/03/04 03:05:13;;;;;;;47.22;25.27;;;0.60;58.20;;;-0.55;42.92;94827.91;5057295;28;20187;-85
2022/03/04 03:07:40;;;;;;;51.17;25.10;;;0.60;58.20;;;-0.54;43.34;94830.38;5040625;28;20235;-84
2022/03/04 03:10:10;;;;;;;51.72;26.38;;;0.60;58.70;;;-0.55;43.55;94822.75;5040431;28;20449;-84
2022/03/04 03:12:39;;;;;;;44.97;24.90;;;0.60;59.40;;;-0.61;43.50;94810.38;5040872;28;20290;-84
2022/03/04 03:15:07;;;;;;;50.88;25.65;;;0.60;59.10;;;-0.47;43.72;94832.44;5056980;28;20284;-84
2022/03/04 03:17:35;;;;;;;45.05;24.17;;;0.60;59.00;;;-0.45;43.49;94827.97;5053718;28;20216;-84
2022/03/04 03:20:05;;;;;;;48.38;25.25;;;0.70;58.80;;;-0.44;43.62;94832.16;5052301;28;20306;-84
2022/03/04 03:22:32;;;;;;;45.40;24.98;;;0.70;58.80;;;-0.44;43.41;94837.31;5056821;28;20203;-84
2022/03/04 03:24:59;;;;;;;54.25;27.30;;;0.70;58.60;;;-0.47;43.43;94837.59;5073880;28;20743;-85
2022/03/04 03:27:26;;;;;;;51.25;24.80;;;0.70;58.80;;;-0.46;43.42;94837.47;5040240;28;20666;-85
2022/03/04 03:29:53;;;;;;;48.75;25.20;;;0.70;58.50;;;-0.51;43.25;94827.53;5040664;28;20230;-85
2022/03/04 03:32:20;;;;;;;48.38;25.20;;;0.70;58.10;;;-0.53;43.22;94831.16;5074093;28;20256;-84
2022/03/04 03:34:47;;;;;;;42.95;24.02;;;0.70;58.10;;;-0.72;43.54;94806.94;5056255;28;20257;-85
2022/03/04 03:37:14;;;;;;;48.90;26.02;;;0.70;58.00;;;-0.64;43.66;94821.75;5056810;28;20199;-85
2022/03/04 03:39:41;;;;;;;48.67;27.10;;;0.70;58.10;;;-0.72;44.09;94824.94;5040627;28;20273;-84
2022/03/04 03:42:09;;;;;;;46.85;25.30;;;0.60;58.40;;;-0.75;43.84;94819.22;5056120;28;20713;-84
2022/03/04 03:44:36;;;;;;;50.00;26.00;;;0.60;58.30;;;-0.98;44.14;94802.13;5073245;28;20735;-85
2022/03/04 03:47:03;;;;;;;49.20;25.58;;;0.60;58.50;;;-0.86;44.20;94833.78;5073064;28;20207;-85
2022/03/04 03:49:31;;;;;;;43.25;23.90;;;0.50;59.70;;;-0.90;44.02;94855.56;5056391;28;20289;-84
2022/03/04 03:51:58;;;;;;;43.97;23.10;;;0.50;58.20;;;-0.99;43.38;94856.28;5049270;28;20226;-84
2022/03/04 03:54:25;;;;;;;41.65;21.35;;;0.40;58.00;;;-1.08;42.98;94855.28;5056686;28;20223;-85
2022/03/04 03:56:52;;;;;;;42.47;21.67;;;0.40;57.90;;;-1.14;43.20;94866.88;5072939;28;20245;-84
2022/03/04 03:59:19;;;;;;;46.00;22.48;;;0.30;57.70;;;-1.28;43.18;94859.44;5072975;28;20223;-85
2022/03/04 04:01:46;;;;;;;39.13;20.80;;;0.30;57.50;;;-1.32;42.42;94869.16;5072735;28;20661;-85
2022/03/04 04:04:14;;;;;;;41.00;21.20;;;0.20;57.40;;;-1.39;42.78;94875.72;5073087;28;20734;-85
2022/03/04 04:06:42;;;;;;;40.03;22.52;;;0.10;57.30;;;-1.48;43.04;94877.25;5073270;28;20276;-85
2022/03/04 04:09:10;;;;;;;44.42;21.58;;;0.00;57.20;;;-1.56;43.03;94882.16;5072996;28;20225;-84
2022/03/04 04:11:39;;;;;;;46.20;22.05;;;0.00;57.30;;;-1.64;42.88;94882.72;5056275;28;20578;-85
2022/03/04 04:14:10;;;;;;;46.78;22.45;;;-0.10;57.20;;;-1.73;43.50;94877.47;5055883;28;20219;-84
2022/03/04 04:16:37;;;;;;;46.67;23.58;;;-0.10;57.50;;;-1.78;43.76;94888.13;5040007;28;20286;-85
2022/03/04 04:19:05;;;;;;;43.42;23.02;;;-0.20;57.70;;;-1.86;43.72;94885.31;5055701;28;20235;-85
2022/03/04 04:21:34;;;;;;;44.42;22.90;;;-0.30;57.60;;;-1.94;43.91;94894.41;5071737;28;20215;-84
2022/03/04 04:24:01;;;;;;;47.42;23.88;;;-0.30;57.80;;;-2.00;44.03;94891.47;5055795;28;20227;-85
2022/03/04 04:26:29;;;;;;;43.95;22.58;;;-0.40;57.90;;;-2.08;44.04;94889.50;5056784;28;20199;-85
2022/03/04 04:28:56;;;;;;;43.30;21.63;;;-0.50;57.90;;;-2.15;44.34;94896.84;5039190;28;20239;-85
2022/03/04 04:31:23;;;;;;;44.83;23.90;;;-0.60;58.00;;;-2.22;44.52;94895.69;5055594;28;20237;-84
2022/03/04 04:33:51;;;;;;;50.13;24.45;;;-0.60;58.60;;;-2.29;45.68;94900.44;5035094;28;20598;-85
2022/03/04 04:36:20;;;;;;;49.85;25.13;;;-0.70;58.90;;;-2.34;46.01;94897.41;5055726;28;20700;-84
2022/03/04 04:38:47;;;;;;;51.03;25.25;;;-0.80;59.30;;;-2.40;46.25;94900.41;5055673;28;20223;-85
2022/03/04 04:41:14;;;;;;;51.53;26.70;;;-0.90;59.70;;;-2.46;46.48;94895.72;5055164;28;20188;-85
2022/03/04 04:43:41;;;;;;;53.58;26.08;;;-0.90;60.70;;;-2.54;46.86;94901.41;5056098;28;20301;-85
2022/03/04 04:46:09;;;;;;;52.85;26.08;;;-1.00;59.90;;;-2.57;47.67;94905.00;5039375;28;20551;-84
2022/03/04 04:48:36;;;;;;;47.10;24.05;;;-1.00;60.40;;;-2.64;47.67;94906.38;5050671;28;20226;-85
2022/03/04 04:51:05;;;;;;;49.50;26.25;;;-1.10;60.40;;;-2.63;48.35;94923.44;5038982;28;20199;-84
2022/03/04 04:53:38;;;;;;;51.53;25.65;;;-1.10;60.80;;;-2.64;48.41;94916.66;5056650;28;20688;-85
2022/03/04 04:56:05;;;;;;;51.58;25.92;;;-1.20;61.00;;;-2.62;48.54;94912.25;5039663;28;20196;-84
2022/03/04 04:58:32;;;;;;;59.00;28.15;;;-1.20;61.10;;;-2.63;49.39;94926.00;5054821;28;20231;-84
2022/03/04 05:01:02;;;;;;;54.45;27.00;;;-1.20;61.90;;;-2.61;49.13;94923.34;5055963;28;20192;-85
2022/03/04 05:03:30;;;;;;;55.42;26.80;;;-1.30;61.70;;;-2.67;49.24;94916.06;5055561;28;20226;-85
2022/03/04 05:05:57;;;;;;;53.90;28.40;;;-1.30;61.80;;;-2.57;48.93;94930.69;5039568;28;20668;-84
2022/03/04 05:08:26;;;;;;;51.35;26.42;;;-1.30;62.10;;;-2.54;49.81;94929.66;5038637;28;20221;-84
2022/03/04 05:10:58;;;;;;;54.75;26.95;;;-1.30;62.10;;;-2.58;49.82;94921.34;5054930;28;20199;-85
2022/03/04 05:13:25;;;;;;;53.10;25.73;;;-1.30;62.30;;;-2.50;49.64;94933.66;5055538;28;20276;-84
2022/03/04 05:15:53;;;;;;;55.08;27.88;;;-1.20;62.20;;;-2.44;49.52;94929.81;5055133;28;20629;-84
2022/03/04 05:18:20;;;;;;;48.45;24.80;;;-1.20;62.30;;;-2.33;48.57;94941.88;5054852;28;20231;-85
2022/03/04 05:20:47;;;;;;;48.92;24.05;;;-1.20;61.90;;;-2.29;47.99;94928.69;5070753;28;20562;-85
2022/03/04 05:23:58;;;;;;;47.30;23.35;;;-1.20;61.70;;;-2.15;47.82;94945.69;5071897;28;20693;-84
2022/03/04 05:26:02;;;;;;;49.47;24.23;;;-1.10;61.60;;;-2.06;47.04;94940.78;5058985;28;20298;-85
2022/03/04 05:28:29;;;;;;;42.55;22.15;;;-1.00;61.40;;;-1.97;46.97;94945.25;5055189;28;20325;-84
2022/03/04 05:30:56;;;;;;;46.22;21.95;;;-1.00;61.40;;;-1.92;46.61;94944.91;5055734;28;20225;-85
2022/03/04 05:33:24;;;;;;;39.50;21.05;;;-0.90;61.30;;;-1.75;46.45;94956.50;5038286;28;20212;-83
2022/03/04 05:35:51;;;;;;;44.75;23.13;;;-0.80;61.30;;;-1.68;46.38;94961.06;5071360;28;20268;-85
2022/03/04 05:38:19;;;;;;;43.97;24.13;;;-0.70;61.30;;;-1.59;46.19;94964.69;5055207;28;20223;-85
2022/03/04 05:40:46;;;;;;;42.50;22.63;;;-0.70;61.10;;;-1.54;45.92;94957.44;5037983;28;20199;-85
2022/03/04 05:43:13;;;;;;;40.75;22.30;;;-0.60;61.20;;;-1.43;46.06;94972.03;5051349;28;20214;-84
2022/03/04 05:45:41;;;;;;;43.80;22.83;;;-0.50;61.20;;;-1.39;45.91;94958.03;5058257;28;20290;-85
2022/03/04 05:48:08;;;;;;;45.95;22.73;;;-0.40;61.20;;;-1.30;45.54;94977.91;5075585;28;20219;-84
2022/03/04 05:50:35;;;;;;;40.80;21.60;;;-0.40;61.00;;;-1.20;45.54;94982.34;5042230;28;20282;-84
2022/03/04 05:53:02;;;;;;;43.53;23.50;;;-0.30;61.00;;;-1.14;45.60;94985.25;5059259;28;20230;-84
2022/03/04 05:55:30;;;;;;;49.15;23.73;;;-0.30;61.10;;;-1.07;45.84;94984.81;5074753;28;20196;-84
2022/03/04 05:57:57;;;;;;;47.75;23.95;;;-0.20;61.30;;;-1.02;45.89;94982.69;5042115;28;20226;-85
2022/03/04 06:00:25;;;;;;;48.65;25.05;;;-0.20;61.20;;;-0.98;46.03;94990.06;5058496;28;20294;-84
2022/03/04 06:02:53;;;;;;;49.47;24.65;;;-0.10;61.40;;;-0.91;45.74;94994.72;5054863;28;20682;-85
2022/03/04 06:05:21;;;;;;;49.40;24.95;;;0.00;61.30;;;-0.87;45.65;94996.94;5073831;28;20649;-84
2022/03/04 06:07:48;;;;;;;42.53;22.73;;;0.00;62.10;;;-0.86;45.95;95000.34;5075423;28;20211;-85
2022/03/04 06:10:15;;;;;;;47.28;24.55;;;0.10;61.30;;;-0.78;45.73;95013.44;5054515;28;20754;-84
2022/03/04 06:12:42;;;;;;;45.38;23.55;;;0.10;61.30;;;-0.73;45.62;95013.06;5055222;28;20704;-85
2022/03/04 06:15:09;;;;;;;44.58;24.17;;;0.20;61.20;;;-0.71;45.71;95014.59;5054875;28;20233;-84
2022/03/04 06:17:37;;;;;;;43.70;23.48;;;0.20;61.20;;;-0.70;45.71;95018.78;5058273;28;20199;-84
2022/03/04 06:20:05;;;;;;;51.25;24.70;;;0.30;61.20;;;-0.63;45.76;95028.63;5057743;28;20227;-84
2022/03/04 06:22:33;;;;;;;46.22;23.70;;;0.30;61.40;;;-0.60;45.68;95023.22;5074182;28;20492;-84
2022/03/04 06:25:01;;;;;;;53.03;25.20;;;0.30;61.50;;;-0.62;46.21;95030.25;5051799;28;20622;-85
2022/03/04 06:27:28;;;;;;;50.75;23.73;;;0.40;62.50;;;-0.57;46.10;95026.38;5052500;28;20246;-85
2022/03/04 06:29:56;;;;;;;48.25;23.13;;;0.40;61.70;;;-0.48;46.20;95019.69;5034195;28;20243;-84
2022/03/04 06:32:23;;;;;;;44.33;21.25;;;0.40;61.70;;;-0.45;45.85;95006.56;5042107;28;20692;-84
2022/03/04 06:34:50;;;;;;;73.25;31.65;;;0.40;61.80;;;-0.31;45.98;95010.63;5071202;28;20222;-85
2022/03/04 06:37:17;;;;;;;48.95;23.73;;;0.50;61.80;;;-0.22;45.99;95007.31;5066859;28;20199;-84
2022/03/04 06:39:44;;;;;;;50.47;23.60;;;0.60;61.80;;;-0.26;45.72;94990.44;5074247;28;20740;-84
2022/03/04 06:42:11;;;;;;;47.92;22.25;;;0.60;61.80;;;-0.09;45.47;95003.75;5057495;28;20692;-85
2022/03/04 06:44:38;;;;;;;49.08;22.27;;;0.70;61.80;;;-0.06;45.42;95012.06;5075030;28;20776;-85
2022/03/04 06:47:05;;;;;;;42.00;20.27;;;0.80;61.80;;;-0.07;45.50;95010.41;5058487;28;20203;-84
2022/03/04 06:49:33;;;;;;;48.38;21.55;;;0.80;61.60;;;-0.11;45.57;95003.03;5065638;28;20276;-85
2022/03/04 06:52:00;;;;;;;44.15;22.02;;;0.80;61.50;;;-0.28;45.58;94996.66;5057850;28;20267;-85
2022/03/04 06:54:27;;;;;;;51.22;22.27;;;0.90;61.60;;;-0.12;45.68;95016.88;5037746;28;20216;-85
2022/03/04 06:56:54;;;;;;;55.55;25.02;;;0.90;61.50;;;-0.16;45.55;95016.31;5029282;28;20195;-85
2022/03/04 06:59:21;;;;;;;49.30;22.33;;;0.90;61.50;;;-0.17;45.40;95025.81;5041267;28;20227;-85
2022/03/04 07:01:48;;;;;;;50.90;22.13;;;0.90;61.50;;;-0.22;45.36;95020.22;5040805;28;20282;-85
2022/03/04 07:04:16;;;;;;;44.85;22.63;;;0.90;61.50;;;-0.17;45.57;95028.38;5058250;28;20277;-84
2022/03/04 07:06:43;;;;;;;125.38;41.40;;;0.90;61.40;;;-0.21;45.70;95027.00;5040870;28;20641;-85
2022/03/04 07:09:10;;;;;;;87.25;32.10;;;0.90;61.40;;;-0.18;45.77;95026.75;5040111;28;20311;-85
2022/03/04 07:11:37;;;;;;;78.80;29.70;;;0.90;61.50;;;-0.17;45.46;95033.53;5041797;28;20198;-84
2022/03/04 07:14:04;;;;;;;62.42;25.73;;;0.90;61.60;;;-0.15;45.55;95032.59;5057052;28;20294;-86
2022/03/04 07:16:31;;;;;;;58.22;26.02;;;0.90;61.60;;;-0.08;45.44;95037.13;5073265;28;20290;-85
2022/03/04 07:18:58;;;;;;;76.78;29.42;;;0.90;61.60;;;-0.02;45.77;95038.41;5073678;28;20703;-85
2022/03/04 07:21:26;;;;;;;58.15;26.88;;;0.90;61.70;;;0.03;45.47;95038.84;5056877;28;20657;-85
2022/03/04 07:23:56;;;;;;;59.42;28.45;;;1.00;61.70;;;0.12;45.81;95043.28;5042340;28;20257;-85
2022/03/04 07:26:23;;;;;;;50.55;24.73;;;1.00;61.70;;;0.21;45.57;95041.72;5041184;28;20207;-85
2022/03/04 07:28:50;;;;;;;50.35;23.92;;;1.00;61.80;;;0.24;45.67;95028.53;5074790;28;20298;-86
2022/03/04 07:31:18;;;;;;;49.17;22.08;;;1.10;61.90;;;0.44;45.51;95028.66;5037483;28;20204;-86
2022/03/04 07:33:45;;;;;;;47.58;21.80;;;1.20;62.00;;;0.64;45.63;95039.94;5040832;28;20219;-87
2022/03/04 07:36:12;;;;;;;47.08;21.75;;;1.20;62.10;;;0.71;45.53;95020.41;5053701;28;20204;-86
2022/03/04 07:38:39;;;;;;;45.33;20.83;;;1.30;62.30;;;0.96;45.90;95036.41;5037566;28;20657;-85
2022/03/04 07:41:06;;;;;;;42.95;19.40;;;1.40;63.30;;;1.19;45.55;95031.88;5037441;28;20188;-86
2022/03/04 07:43:34;;;;;;;44.05;20.00;;;1.60;62.50;;;1.37;45.57;95033.84;5056131;28;20278;-86
2022/03/04 07:46:01;;;;;;;40.33;19.48;;;1.70;62.60;;;1.52;45.52;95031.72;5070976;28;20215;-86
2022/03/04 07:48:28;;;;;;;43.95;19.73;;;1.90;62.60;;;1.65;45.11;95027.09;5056580;28;20229;-86
2022/03/04 07:50:56;;;;;;;39.10;19.63;;;2.00;62.40;;;1.70;44.93;95034.47;5073735;28;20290;-86
2022/03/04 07:53:23;;;;;;;43.10;20.08;;;2.10;62.20;;;1.67;44.71;95043.31;5037049;28;20251;-86
2022/03/04 07:55:50;;;;;;;38.58;19.48;;;2.20;62.00;;;1.66;45.12;95035.66;5029054;28;20205;-85
2022/03/04 07:58:17;;;;;;;39.38;18.63;;;2.30;61.80;;;1.52;44.96;95022.19;5040679;28;20223;-85
2022/03/04 08:00:45;;;;;;;87.63;43.72;;;2.40;61.80;;;1.68;45.00;95044.91;5057491;28;20299;-86
2022/03/04 08:03:32;;;;;;;48.97;28.33;;;2.40;61.70;;;1.74;45.06;95049.56;5059327;28;20931;-86
2022/03/04 08:05:59;;;;;;;46.47;23.48;;;2.40;61.60;;;1.82;45.10;95046.31;5070763;28;20192;-86
2022/03/04 08:08:27;;;;;;;36.47;19.30;;;2.50;61.80;;;1.94;44.95;95041.00;5073537;28;20254;-86
2022/03/04 08:10:54;;;;;;;39.00;19.27;;;2.50;61.80;;;2.05;44.90;95036.53;5054431;28;20200;-86
2022/03/04 08:13:22;;;;;;;35.38;17.63;;;2.60;61.90;;;2.19;44.89;95040.47;5040365;28;20264;-87
2022/03/04 08:15:50;;;;;;;33.75;16.80;;;2.60;61.80;;;2.21;44.67;95033.41;5040281;28;20196;-86
2022/03/04 08:18:18;;;;;;;34.92;16.90;;;2.70;61.90;;;2.44;44.64;95056.41;5057153;28;20218;-86
2022/03/04 08:20:45;;;;;;;35.80;17.30;;;2.80;61.80;;;2.54;44.68;95052.03;5040025;28;20701;-87
2022/03/04 08:23:12;;;;;;;39.35;19.02;;;2.90;61.90;;;2.64;44.64;95046.81;5056070;28;20215;-87
2022/03/04 08:25:40;;;;;;;32.15;16.52;;;2.90;62.10;;;2.71;44.74;95031.53;5052435;28;20196;-87
2022/03/04 08:28:08;;;;;;;34.50;16.88;;;3.00;62.00;;;2.96;44.27;95043.06;5024427;28;20215;-86
2022/03/04 08:30:35;;;;;;;33.28;18.40;;;3.20;62.10;;;3.08;44.81;95025.56;5040360;28;20208;-87
2022/03/04 08:33:02;;;;;;;35.35;16.70;;;3.30;62.10;;;3.31;44.57;95041.56;5039910;28;20435;-87
2022/03/04 08:35:29;;;;;;;37.38;17.27;;;3.40;61.90;;;3.37;44.19;95040.19;5039750;28;20195;-86
2022/03/04 08:37:57;;;;;;;30.63;16.27;;;3.60;62.00;;;3.42;43.97;95040.56;5055580;28;20203;-86
2022/03/04 08:40:24;;;;;;;31.02;15.90;;;3.70;61.80;;;3.51;44.44;95051.84;5071424;28;20227;-86
2022/03/04 08:42:51;;;;;;;31.13;16.13;;;3.80;61.70;;;3.44;44.01;95024.84;5039778;28;20213;-85
2022/03/04 08:45:20;;;;;;;32.13;15.57;;;3.90;61.60;;;3.66;43.86;95057.34;5055809;28;20207;-86
2022/03/04 08:47:48;;;;;;;27.80;15.63;;;4.00;61.50;;;3.73;44.08;95060.19;5052019;28;20200;-86
2022/03/04 08:50:16;;;;;;;43.92;25.15;;;4.00;61.40;;;3.78;44.02;95048.41;5055635;28;20645;-86
2022/03/04 08:52:45;;;;;;;33.97;20.02;;;4.10;61.50;;;3.89;44.21;95047.38;5039723;28;20198;-85
2022/03/04 08:55:14;;;;;;;31.58;17.40;;;4.20;61.60;;;4.05;43.92;95051.09;5058853;28;20219;-86
2022/03/04 08:57:47;;;;;;;28.00;15.93;;;4.30;61.70;;;4.19;44.18;95052.34;5033401;28;20291;-87
2022/03/04 09:00:16;;;;;;;31.85;15.38;;;4.40;61.60;;;4.31;43.92;95049.38;5055372;28;20366;-86
2022/03/04 09:02:44;;;;;;;28.98;15.68;;;4.50;61.50;;;4.45;43.73;95052.41;5064564;28;20261;-86
2022/03/04 09:05:12;;;;;;;25.30;13.80;;;4.60;61.60;;;4.59;43.73;95064.88;5039550;28;20664;-86
2022/03/04 09:07:39;;;;;;;28.00;15.05;;;4.70;61.50;;;4.68;43.53;95054.53;5038508;28;20472;-86
2022/03/04 09:10:07;;;;;;;26.10;13.82;;;4.80;61.40;;;4.79;43.42;95060.28;5055868;28;20250;-86
2022/03/04 09:12:34;;;;;;;25.20;14.05;;;4.90;61.30;;;4.86;43.40;95052.72;5056063;28;20199;-87
2022/03/04 09:15:03;;;;;;;26.27;13.80;;;5.00;61.30;;;4.97;42.97;95060.25;5054241;28;20229;-86
2022/03/04 09:17:30;;;;;;;28.13;15.10;;;5.20;61.10;;;5.03;43.08;95069.22;5038786;28;20191;-86
2022/03/04 09:19:57;;;;;;;27.77;15.32;;;5.30;60.90;;;5.04;42.99;95063.06;5071311;28;20231;-85
2022/03/04 09:22:25;;;;;;;28.38;14.05;;;5.30;60.70;;;5.13;42.89;95058.72;5055537;28;20207;-86
2022/03/04 09:24:53;;;;;;;26.52;14.18;;;5.40;60.80;;;5.21;42.78;95058.78;5071316;28;20768;-86
2022/03/04 09:27:20;;;;;;;25.80;14.05;;;5.40;60.60;;;5.22;42.57;95047.38;5058124;28;20207;-85
2022/03/04 09:29:47;;;;;;;23.95;13.32;;;5.50;60.70;;;5.41;42.42;95079.34;5039036;28;20238;-86
2022/03/04 09:32:15;;;;;;;22.13;12.60;;;5.60;60.60;;;5.49;42.45;95079.34;5038849;28;20195;-86
2022/03/04 09:34:42;;;;;;;25.42;14.00;;;5.70;60.60;;;5.57;42.45;95079.41;5038164;28;20463;-86
2022/03/04 09:37:09;;;;;;;23.95;12.52;;;5.70;60.60;;;5.64;42.46;95084.81;5071143;28;20578;-86
2022/03/04 09:39:36;;;;;;;20.08;12.27;;;5.80;60.50;;;5.75;42.43;95076.69;5034872;28;20285;-86
2022/03/04 09:42:04;;;;;;;25.48;14.23;;;5.90;60.50;;;5.75;42.69;95050.69;5051692;28;20211;-86
2022/03/04 09:44:31;;;;;;;24.48;13.65;;;6.00;60.70;;;6.02;42.43;95087.88;5035299;28;20251;-86
2022/03/04 09:47:01;;;;;;;23.35;12.73;;;6.10;60.60;;;6.13;42.47;95075.50;5018951;28;20195;-86
2022/03/04 09:49:35;;;;;;;24.80;13.50;;;6.20;60.60;;;6.19;42.27;95074.88;5030382;28;20224;-86
2022/03/04 09:52:06;;;;;;;21.77;12.45;;;6.30;60.40;;;6.19;42.38;95072.28;5035239;28;20573;-85
2022/03/04 09:54:34;;;;;;;25.17;13.48;;;6.40;60.30;;;6.30;42.00;95082.41;5033784;28;20239;-86
2022/03/04 09:57:01;;;;;;;21.65;12.65;;;6.50;60.40;;;6.28;42.05;95071.31;5052279;28;20221;-86
2022/03/04 09:59:28;;;;;;;24.55;13.45;;;6.50;60.20;;;6.43;42.17;95084.50;5038347;28;20227;-85
2022/03/04 10:01:58;;;;;;;24.42;14.25;;;6.60;60.20;;;6.52;41.92;95090.56;5054590;28;20183;-86
2022/03/04 10:04:27;;;;;;;34.38;18.17;;;6.70;60.30;;;6.62;42.06;95080.78;5038647;28;20230;-85
2022/03/04 10:06:55;;;;;;;26.02;15.38;;;6.70;60.20;;;6.56;42.01;95060.59;5038293;28;20635;-85
2022/03/04 10:09:43;;;;;;;21.27;12.25;;;6.80;60.10;;;6.79;41.57;95080.78;5082200;28;20771;-86
2022/03/04 10:12:12;;;;;;;22.80;12.85;;;6.90;59.80;;;6.86;41.69;95079.97;5054412;28;20201;-86
2022/03/04 10:15:05;;;;;;;35.85;14.48;;;7.00;60.00;;;6.94;41.68;95084.34;5038224;28;20227;-86